Terminal Aerodrome Forecast
Issued by NWS

Current Version | Previous Version | Graphics & Text | Print | Product List | Glossary On
Versions: 1 2 3 4 5 6 7 8 9 10 11 12 13 14 15 16 17 18 19 20 21 22
000
FTUS41 KRLX 261727
TAFCKB
TAF
KCKB 261727Z 2618/2718 27010G18KT P6SM SCT060
     FM262200 27008KT P6SM SCT060
     FM270900 18004KT P6SM BKN080
     FM271500 27010KT P6SM BKN050=

USA.gov is the U.S. government's official web portal to all federal, state and local government web resources and services.